Time;durP1;ratioP1;P1;durP2;ratioP2;P2;SDS_P1;SDS_P2;PMS_P1;PMS_P2;Temp;Humidity;BMP_temperature;BMP_pressure;BME280_temperature;BME280_humidity;BME280_pressure;Samples;Min_cycle;Max_cycle;Signal;HPM_P1;HPM_P2
2021/07/31 00:01:44;;;;;;;14.90;7.00;;;;;;;37.35;22.76;94040.38;5034341;28;20052;-52
2021/07/31 00:04:11;;;;;;;17.05;7.53;;;;;;;37.72;21.95;94033.84;5052859;28;20049;-48
2021/07/31 00:06:38;;;;;;;12.15;7.15;;;;;;;37.60;21.81;94043.78;5053703;28;20064;-58
2021/07/31 00:09:05;;;;;;;12.75;7.00;;;;;;;37.75;22.26;94038.41;5053198;28;20048;-56
2021/07/31 00:11:32;;;;;;;10.80;6.80;;;;;;;37.56;22.34;94037.78;5052688;28;20049;-47
2021/07/31 00:14:00;;;;;;;13.93;7.53;;;;;;;37.68;21.53;94039.47;5052737;28;20045;-49
2021/07/31 00:16:27;;;;;;;13.98;7.10;;;;;;;37.75;21.89;94046.56;5043740;28;20049;-51
2021/07/31 00:18:54;;;;;;;13.38;7.03;;;;;;;37.53;21.72;94042.19;5033995;28;20516;-53
2021/07/31 00:21:22;;;;;;;13.43;7.55;;;;;;;37.47;22.33;94051.47;5036017;28;20045;-49
2021/07/31 00:23:49;;;;;;;13.40;6.55;;;;;;;37.62;22.25;94041.34;5044799;28;20052;-48
2021/07/31 00:26:17;;;;;;;15.32;8.07;;;;;;;37.55;22.11;94041.72;5057645;28;20045;-53
2021/07/31 00:28:44;;;;;;;13.52;6.93;;;;;;;37.70;22.15;94041.72;5057961;28;20071;-50
2021/07/31 00:31:11;;;;;;;14.02;7.32;;;;;;;37.51;21.94;94041.16;5057993;28;20357;-50
2021/07/31 00:33:38;;;;;;;15.85;7.10;;;;;;;37.77;21.81;94044.13;5055759;28;20049;-49
2021/07/31 00:36:05;;;;;;;14.55;6.93;;;;;;;37.65;22.25;94046.63;5057083;28;20076;-49
2021/07/31 00:38:32;;;;;;;10.93;6.53;;;;;;;37.56;22.26;94040.50;5057682;28;20467;-50
2021/07/31 00:40:59;;;;;;;12.10;6.93;;;;;;;37.48;22.32;94042.09;5056685;28;20049;-49
2021/07/31 00:43:26;;;;;;;11.52;6.82;;;;;;;37.59;22.23;94047.75;5057330;28;20049;-51
2021/07/31 00:45:53;;;;;;;15.35;7.85;;;;;;;37.50;22.64;94045.09;5044651;28;20045;-48
2021/07/31 00:48:21;;;;;;;12.07;6.72;;;;;;;37.39;22.81;94044.88;5020023;28;20037;-52
2021/07/31 00:50:48;;;;;;;13.90;7.28;;;;;;;37.45;22.69;94048.47;5052468;28;20103;-48
2021/07/31 00:53:15;;;;;;;12.77;7.65;;;;;;;37.14;23.18;94041.41;5057124;28;20048;-50
2021/07/31 00:55:43;;;;;;;15.35;7.65;;;;;;;37.15;22.71;94042.91;5047085;28;20056;-50
2021/07/31 00:58:11;;;;;;;14.52;7.35;;;;;;;37.24;23.00;94034.69;5050666;28;20456;-49
2021/07/31 01:00:45;;;;;;;12.40;7.47;;;;;;;37.37;22.83;94037.19;5036530;28;20064;-50
2021/07/31 01:03:12;;;;;;;16.63;7.55;;;;;;;37.32;22.41;94035.84;5053667;28;20375;-53
2021/07/31 01:05:39;;;;;;;12.43;7.55;;;;;;;37.10;23.38;94038.13;5052950;28;20367;-50
2021/07/31 01:08:07;;;;;;;14.32;7.30;;;;;;;37.35;22.79;94026.75;5048107;28;20048;-49
2021/07/31 01:10:35;;;;;;;13.55;8.15;;;;;;;37.29;22.73;94025.91;5035738;28;20053;-49
2021/07/31 01:13:03;;;;;;;12.55;7.45;;;;;;;37.28;22.84;94031.81;5051231;28;20382;-51
2021/07/31 01:15:32;;;;;;;12.35;7.80;;;;;;;37.30;22.53;94023.91;5054416;28;20459;-50
2021/07/31 01:17:59;;;;;;;15.32;7.35;;;;;;;37.54;22.77;94018.41;5037214;28;20057;-48
2021/07/31 01:20:26;;;;;;;12.38;7.15;;;;;;;37.61;21.88;94013.34;5036964;28;20053;-51
2021/07/31 01:23:01;;;;;;;13.82;8.05;;;;;;;37.54;22.35;94024.63;5050550;28;20045;-50
2021/07/31 01:25:28;;;;;;;13.48;7.10;;;;;;;37.39;22.39;94023.09;5042750;28;20060;-48
2021/07/31 01:27:55;;;;;;;15.45;7.60;;;;;;;37.30;22.95;94024.66;5039087;28;20060;-50
2021/07/31 01:30:22;;;;;;;14.38;7.35;;;;;;;37.21;22.76;94013.81;5036769;28;20048;-50
2021/07/31 01:32:50;;;;;;;16.70;7.68;;;;;;;37.25;22.61;94019.88;5043632;28;20443;-49
2021/07/31 01:35:17;;;;;;;16.48;8.25;;;;;;;37.28;23.02;94013.50;5036443;28;20467;-53
2021/07/31 01:37:44;;;;;;;13.85;7.60;;;;;;;37.10;22.78;94016.31;5051066;28;20053;-57
2021/07/31 01:40:13;;;;;;;18.70;7.88;;;;;;;37.30;22.61;94015.75;5036440;28;20455;-50
2021/07/31 01:42:42;;;;;;;11.85;7.30;;;;;;;37.12;22.83;94018.56;5047846;28;20044;-52
2021/07/31 01:45:11;;;;;;;13.77;7.32;;;;;;;37.31;22.78;94023.44;5056518;28;20053;-48
2021/07/31 01:47:41;;;;;;;13.25;7.72;;;;;;;37.17;22.70;94018.69;5055866;28;20052;-48
2021/07/31 01:50:08;;;;;;;12.75;7.82;;;;;;;36.98;23.03;94022.78;5056253;28;20064;-50
2021/07/31 01:52:46;;;;;;;14.40;7.93;;;;;;;36.77;23.00;94023.78;5056320;28;20041;-50
2021/07/31 01:55:14;;;;;;;14.03;8.07;;;;;;;36.81;23.29;94011.53;5056358;28;20044;-48
2021/07/31 01:57:44;;;;;;;10.88;6.80;;;;;;;36.90;22.81;94016.16;5054873;28;20294;-50
2021/07/31 02:00:17;;;;;;;11.68;7.43;;;;;;;36.92;22.86;94019.16;5055989;28;20048;-47
2021/07/31 02:02:57;;;;;;;14.10;7.10;;;;;;;37.14;22.40;94011.44;5055387;28;20041;-49
2021/07/31 02:05:30;;;;;;;14.00;8.05;;;;;;;36.99;22.75;94016.13;5054756;28;20057;-50
2021/07/31 02:07:58;;;;;;;12.48;7.53;;;;;;;36.91;22.95;94015.69;5055674;28;20040;-48
2021/07/31 02:10:27;;;;;;;15.05;7.72;;;;;;;36.95;23.22;94013.53;5055000;28;20366;-46
2021/07/31 02:12:56;;;;;;;13.88;7.20;;;;;;;36.92;23.01;94013.72;5055714;28;20049;-47
2021/07/31 02:15:28;;;;;;;11.40;8.15;;;;;;;36.78;23.10;94025.28;5054042;28;20071;-50
2021/07/31 02:18:00;;;;;;;13.90;7.97;;;;;;;36.88;23.02;94015.88;5054362;28;20052;-47
2021/07/31 02:20:27;;;;;;;15.38;8.15;;;;;;;36.65;23.44;94028.22;5054866;28;20083;-49
2021/07/31 02:23:30;;;;;;;13.60;7.32;;;;;;;36.62;23.50;94019.03;5051268;28;20048;-54
2021/07/31 02:26:15;;;;;;;10.60;7.30;;;;;;;36.86;22.89;94021.03;5055304;28;20451;-48
2021/07/31 02:29:05;;;;;;;15.17;7.63;;;;;;;36.51;23.39;94018.78;5052411;28;20040;-50
2021/07/31 02:31:38;;;;;;;14.40;8.02;;;;;;;36.66;23.63;94019.59;5055486;28;20044;-48
2021/07/31 02:34:06;;;;;;;10.73;7.50;;;;;;;36.83;23.34;94021.97;5054804;28;20063;-47
2021/07/31 02:36:36;;;;;;;14.85;8.00;;;;;;;36.92;23.06;94030.06;5055402;28;20053;-48
2021/07/31 02:39:10;;;;;;;13.55;8.45;;;;;;;36.55;23.29;94035.69;5054217;28;20041;-49
2021/07/31 02:41:38;;;;;;;17.83;8.05;;;;;;;36.84;23.26;94035.13;5053731;28;20048;-48
2021/07/31 02:44:07;;;;;;;16.50;7.57;;;;;;;36.70;23.19;94031.09;5054391;28;20045;-49
2021/07/31 02:46:36;;;;;;;13.20;7.75;;;;;;;36.68;23.23;94030.78;5051187;28;20048;-48
2021/07/31 02:49:03;;;;;;;13.70;8.07;;;;;;;36.51;23.43;94028.94;5035279;28;20049;-50
2021/07/31 02:51:30;;;;;;;11.70;7.50;;;;;;;36.64;23.49;94032.94;5035264;28;20052;-47
2021/07/31 02:54:09;;;;;;;13.90;7.78;;;;;;;36.87;23.15;94033.44;5035414;28;20088;-49
2021/07/31 02:56:37;;;;;;;15.10;8.18;;;;;;;36.89;23.23;94026.28;5044284;28;20447;-47
2021/07/31 02:59:08;;;;;;;12.95;7.80;;;;;;;36.82;22.95;94025.91;5054930;28;20383;-49
2021/07/31 03:01:36;;;;;;;14.20;8.30;;;;;;;36.79;23.24;94035.00;5054270;28;20055;-48
2021/07/31 03:04:04;;;;;;;14.32;7.85;;;;;;;36.50;23.98;94044.50;5053705;28;20047;-50
2021/07/31 03:06:31;;;;;;;15.88;7.60;;;;;;;36.65;23.48;94039.13;5054988;28;20363;-47
2021/07/31 03:09:00;;;;;;;12.60;7.95;;;;;;;36.65;23.57;94039.88;5054815;28;20051;-49
2021/07/31 03:11:29;;;;;;;12.60;8.15;;;;;;;36.75;23.12;94035.16;5053799;28;20052;-48
2021/07/31 03:13:57;;;;;;;13.52;7.70;;;;;;;36.53;23.71;94040.84;5054138;28;20080;-49
2021/07/31 03:16:30;;;;;;;14.80;8.27;;;;;;;36.61;23.42;94038.53;5053808;28;20048;-48
2021/07/31 03:19:01;;;;;;;14.25;8.02;;;;;;;36.55;23.57;94046.59;5053486;28;20443;-46
2021/07/31 03:21:29;;;;;;;16.45;8.60;;;;;;;36.66;23.15;94035.94;5053773;28;20055;-46
2021/07/31 03:24:11;;;;;;;15.43;8.05;;;;;;;36.48;23.81;94041.50;5052517;28;20049;-49
2021/07/31 03:26:38;;;;;;;13.55;7.80;;;;;;;36.57;23.75;94044.16;5054718;28;20053;-47
2021/07/31 03:29:08;;;;;;;18.88;8.27;;;;;;;36.81;23.82;94035.28;5054551;28;20041;-47
2021/07/31 03:31:36;;;;;;;15.05;8.85;;;;;;;36.71;23.52;94045.47;5053739;28;20459;-48
2021/07/31 03:34:04;;;;;;;22.27;8.90;;;;;;;36.64;23.83;94046.53;5053200;28;20061;-47
2021/07/31 03:36:31;;;;;;;15.60;8.52;;;;;;;36.95;23.23;94040.78;5054537;28;20347;-50
2021/07/31 03:39:04;;;;;;;14.95;8.60;;;;;;;36.85;23.29;94041.31;5054437;28;20052;-48
2021/07/31 03:41:36;;;;;;;17.63;8.20;;;;;;;36.67;23.60;94042.13;5054447;28;20045;-49
2021/07/31 03:44:05;;;;;;;14.90;8.98;;;;;;;36.62;23.86;94040.81;5052495;28;20044;-50
2021/07/31 03:46:36;;;;;;;12.75;8.18;;;;;;;36.49;24.19;94043.00;5053355;28;20056;-52
2021/07/31 03:49:03;;;;;;;14.63;8.57;;;;;;;36.39;24.14;94038.78;5036590;28;20033;-58
2021/07/31 03:51:33;;;;;;;14.45;8.20;;;;;;;36.81;23.75;94040.72;5053321;28;20044;-48
2021/07/31 03:54:00;;;;;;;14.90;8.43;;;;;;;36.32;24.15;94044.56;5053810;28;20053;-49
2021/07/31 03:56:28;;;;;;;13.82;8.02;;;;;;;36.70;24.35;94047.44;5052021;28;20045;-53
2021/07/31 03:59:00;;;;;;;17.45;8.13;;;;;;;36.75;24.13;94044.06;5052604;28;20055;-61
2021/07/31 04:01:28;;;;;;;17.85;9.32;;;;;;;36.22;24.76;94040.38;5054489;28;20055;-51
2021/07/31 04:04:00;;;;;;;15.30;8.20;;;;;;;36.52;24.61;94042.06;5052228;28;20056;-49
2021/07/31 04:06:27;;;;;;;13.60;8.32;;;;;;;36.72;24.26;94044.25;5054139;28;20060;-55
2021/07/31 04:09:13;;;;;;;16.83;9.10;;;;;;;36.61;24.71;94049.44;5053828;28;20693;-57
2021/07/31 04:12:09;;;;;;;15.05;8.20;;;;;;;36.73;24.47;94049.22;5034765;28;20073;-50
2021/07/31 04:14:55;;;;;;;15.13;8.63;;;;;;;36.60;24.99;94058.81;5053835;28;20052;-53
2021/07/31 04:17:23;;;;;;;13.73;8.07;;;;;;;36.68;25.24;94065.41;5052141;28;20048;-54
2021/07/31 04:19:51;;;;;;;15.23;8.82;;;;;;;36.83;24.69;94057.38;5046273;28;20068;-49
2021/07/31 04:22:18;;;;;;;17.08;8.93;;;;;;;37.03;24.42;94063.75;5053649;28;20056;-62
2021/07/31 04:24:48;;;;;;;16.27;8.43;;;;;;;36.71;25.13;94069.97;5053046;28;20049;-64
2021/07/31 04:27:17;;;;;;;22.08;8.63;;;;;;;36.88;24.97;94067.63;5052551;28;20048;-56
2021/07/31 04:29:45;;;;;;;19.75;8.45;;;;;;;36.95;24.76;94072.72;5053997;28;20463;-54
2021/07/31 04:32:12;;;;;;;18.10;10.20;;;;;;;36.87;24.94;94083.19;5052964;28;20060;-67
2021/07/31 04:34:39;;;;;;;15.85;8.27;;;;;;;37.84;23.61;94082.69;5053835;28;20072;-68
2021/07/31 04:37:06;;;;;;;15.98;8.80;;;;;;;38.70;21.87;94089.06;5040919;28;20052;-63
2021/07/31 04:39:33;;;;;;;14.80;7.97;;;;;;;38.51;21.93;94081.06;5050101;28;20045;-57
2021/07/31 04:42:00;;;;;;;10.40;7.95;;;;;;;38.49;22.30;94090.94;5032355;28;20048;-53
2021/07/31 04:44:27;;;;;;;12.95;8.45;;;;;;;38.62;22.18;94088.72;5054105;28;20045;-53
2021/07/31 04:46:54;;;;;;;14.30;7.95;;;;;;;38.80;21.57;94098.66;5052187;28;20052;-55
2021/07/31 04:49:21;;;;;;;15.02;8.65;;;;;;;38.80;22.20;94102.16;5051856;28;20041;-56
2021/07/31 04:51:49;;;;;;;15.10;8.48;;;;;;;38.95;21.79;94099.34;5053569;28;20045;-56
2021/07/31 04:54:16;;;;;;;15.60;7.97;;;;;;;38.83;21.87;94103.16;5053443;28;20053;-52
2021/07/31 04:56:43;;;;;;;17.30;8.82;;;;;;;38.39;21.93;94101.25;5053714;28;20344;-57
2021/07/31 04:59:11;;;;;;;14.90;8.50;;;;;;;38.14;22.96;94102.53;5052692;28;20044;-55
2021/07/31 05:01:38;;;;;;;16.75;9.07;;;;;;;37.81;23.54;94113.63;5053737;28;20477;-54
2021/07/31 05:04:05;;;;;;;18.10;9.07;;;;;;;38.11;22.95;94108.19;5052449;28;20060;-55
2021/07/31 05:06:32;;;;;;;18.02;8.82;;;;;;;37.94;23.17;94110.63;5053255;28;20053;-55
2021/07/31 05:08:59;;;;;;;12.73;8.20;;;;;;;37.98;23.30;94108.44;5056062;28;20695;-55
2021/07/31 05:11:26;;;;;;;13.95;8.27;;;;;;;38.18;23.40;94107.84;5057206;28;20051;-57
2021/07/31 05:13:53;;;;;;;15.93;8.95;;;;;;;38.36;22.58;94113.09;5056719;28;20056;-57
2021/07/31 05:16:20;;;;;;;15.25;8.50;;;;;;;38.29;22.74;94113.50;5057017;28;20131;-56
2021/07/31 05:18:47;;;;;;;15.68;8.90;;;;;;;38.29;22.64;94102.56;5056493;28;20056;-54
2021/07/31 05:21:14;;;;;;;18.25;8.40;;;;;;;38.23;22.38;94104.44;5056998;28;20045;-55
2021/07/31 05:23:41;;;;;;;16.27;8.73;;;;;;;38.17;22.73;94106.34;5055518;28;20044;-52
2021/07/31 05:26:10;;;;;;;14.73;8.70;;;;;;;38.22;23.17;94108.41;5055672;28;20049;-54
2021/07/31 05:28:37;;;;;;;14.77;7.72;;;;;;;38.60;22.30;94109.50;5056394;28;20095;-55
2021/07/31 05:31:04;;;;;;;16.83;8.85;;;;;;;38.68;22.70;94121.56;5056816;28;20440;-53
2021/07/31 05:33:31;;;;;;;13.38;8.25;;;;;;;38.64;22.86;94121.00;5055955;28;20071;-53
2021/07/31 05:35:58;;;;;;;17.67;8.02;;;;;;;38.73;22.78;94115.41;5055786;28;20060;-53
2021/07/31 05:38:25;;;;;;;19.02;8.23;;;;;;;38.76;22.70;94117.94;5056140;28;20444;-55
2021/07/31 05:40:52;;;;;;;14.07;7.38;;;;;;;38.63;22.92;94125.72;5056181;28;20045;-55
2021/07/31 05:43:19;;;;;;;19.15;8.55;;;;;;;38.82;22.22;94126.25;5056270;28;20053;-56
2021/07/31 05:45:48;;;;;;;13.32;7.88;;;;;;;38.90;22.04;94127.34;5056594;28;20452;-57
2021/07/31 05:48:15;;;;;;;12.68;7.97;;;;;;;38.92;22.96;94124.91;5055983;28;20470;-54
2021/07/31 05:50:42;;;;;;;15.40;8.25;;;;;;;38.94;22.93;94122.44;5045373;28;20375;-54
2021/07/31 05:53:09;;;;;;;14.57;7.82;;;;;;;39.08;22.70;94127.16;5044098;28;20060;-53
2021/07/31 05:55:37;;;;;;;14.30;7.72;;;;;;;39.12;22.74;94121.47;5056301;28;20048;-55
2021/07/31 05:58:04;;;;;;;14.07;7.97;;;;;;;39.41;22.32;94120.59;5055621;28;20045;-53
2021/07/31 06:00:31;;;;;;;13.45;7.45;;;;;;;39.38;22.61;94122.31;5056199;28;20053;-52
2021/07/31 06:02:59;;;;;;;12.00;7.90;;;;;;;39.57;22.37;94124.78;5055269;28;20049;-54
2021/07/31 06:05:26;;;;;;;16.23;7.60;;;;;;;38.97;23.20;94121.47;5055724;28;20049;-56
2021/07/31 06:07:53;;;;;;;17.00;8.00;;;;;;;39.64;21.94;94121.63;5055702;28;20049;-53
2021/07/31 06:10:20;;;;;;;18.38;8.02;;;;;;;39.26;22.33;94119.91;5056165;28;20037;-52
2021/07/31 06:12:47;;;;;;;16.20;8.35;;;;;;;39.52;22.15;94120.75;5055909;28;20052;-55
2021/07/31 06:15:15;;;;;;;15.65;7.55;;;;;;;39.63;22.01;94115.41;5037083;28;20045;-54
2021/07/31 06:17:42;;;;;;;15.05;7.55;;;;;;;39.80;22.04;94112.09;5037526;28;20041;-56
2021/07/31 06:20:09;;;;;;;15.75;7.90;;;;;;;39.94;21.96;94119.47;5055342;28;20052;-53
2021/07/31 06:22:36;;;;;;;14.15;7.65;;;;;;;39.80;21.81;94117.56;5055472;28;20056;-55
2021/07/31 06:25:04;;;;;;;15.68;8.05;;;;;;;39.99;21.67;94113.31;5055661;28;20045;-53
2021/07/31 06:27:31;;;;;;;15.52;8.13;;;;;;;40.11;21.30;94114.94;5048513;28;20056;-53
2021/07/31 06:29:58;;;;;;;16.95;8.40;;;;;;;40.04;21.20;94110.63;5055861;28;20386;-55
2021/07/31 06:32:25;;;;;;;14.98;7.18;;;;;;;40.21;21.04;94108.06;5055226;28;20358;-55
2021/07/31 06:34:52;;;;;;;13.60;7.25;;;;;;;40.51;20.61;94113.28;5055135;28;20044;-56
2021/07/31 06:37:19;;;;;;;14.27;7.63;;;;;;;40.43;20.81;94110.25;5055670;28;20045;-56
2021/07/31 06:39:46;;;;;;;18.13;7.95;;;;;;;40.40;20.86;94102.28;5055037;28;20059;-55
2021/07/31 06:42:13;;;;;;;12.70;7.50;;;;;;;40.62;20.33;94105.19;5055074;28;20053;-53
2021/07/31 06:44:40;;;;;;;17.30;7.32;;;;;;;40.71;20.41;94098.75;5055079;28;20049;-53
2021/07/31 06:47:07;;;;;;;14.52;7.57;;;;;;;40.90;20.55;94105.38;5045517;28;20337;-54
2021/07/31 06:49:34;;;;;;;16.00;7.82;;;;;;;41.28;20.33;94101.34;5051733;28;20040;-54
2021/07/31 06:52:02;;;;;;;12.05;7.85;;;;;;;41.33;19.48;94106.09;5053953;28;20346;-53
2021/07/31 06:54:30;;;;;;;17.23;7.70;;;;;;;40.89;20.04;94104.63;5054953;28;20059;-55
2021/07/31 06:56:57;;;;;;;16.60;8.15;;;;;;;41.46;19.56;94102.94;5054122;28;20057;-54
2021/07/31 06:59:24;;;;;;;15.60;8.05;;;;;;;41.48;19.62;94098.44;5051031;28;20443;-57
2021/07/31 07:01:51;;;;;;;15.68;8.02;;;;;;;41.46;19.73;94100.94;5054942;28;20052;-55
2021/07/31 07:04:18;;;;;;;17.30;8.05;;;;;;;41.41;19.29;94096.19;5054521;28;20055;-57
2021/07/31 07:06:45;;;;;;;15.25;7.68;;;;;;;41.49;19.37;94097.22;5055088;28;20049;-55
2021/07/31 07:09:12;;;;;;;15.30;7.20;;;;;;;41.66;19.24;94096.56;5054349;28;20053;-53
2021/07/31 07:11:39;;;;;;;19.25;8.32;;;;;;;41.85;19.04;94103.06;5055178;28;20048;-54
2021/07/31 07:14:06;;;;;;;15.70;8.07;;;;;;;41.98;19.46;94099.84;5054519;28;20049;-54
2021/07/31 07:16:33;;;;;;;14.65;7.70;;;;;;;42.41;18.46;94103.88;5052531;28;20056;-55
2021/07/31 07:19:00;;;;;;;15.80;8.15;;;;;;;42.07;18.34;94108.63;5045173;28;20060;-56
2021/07/31 07:21:27;;;;;;;13.60;8.00;;;;;;;42.41;18.12;94103.88;5054861;28;20051;-53
2021/07/31 07:23:55;;;;;;;17.35;8.50;;;;;;;42.33;17.97;94102.16;5054529;28;20045;-58
2021/07/31 07:26:22;;;;;;;16.08;8.80;;;;;;;42.43;18.13;94106.91;5054585;28;20052;-55
2021/07/31 07:28:49;;;;;;;19.13;9.80;;;;;;;42.32;18.57;94100.66;5053312;28;20479;-54
2021/07/31 07:31:16;;;;;;;17.65;8.98;;;;;;;42.71;18.33;94104.16;5053728;28;20470;-55
2021/07/31 07:33:43;;;;;;;17.10;8.88;;;;;;;42.71;17.82;94104.16;5053764;28;20057;-56
2021/07/31 07:36:19;;;;;;;13.45;8.13;;;;;;;43.07;17.49;94104.38;5054326;28;20072;-57
2021/07/31 07:38:47;;;;;;;21.38;7.82;;;;;;;43.30;17.65;94107.81;5052405;28;20037;-51
2021/07/31 07:41:14;;;;;;;15.27;8.27;;;;;;;43.25;17.56;94114.81;5053572;28;20049;-52
2021/07/31 07:43:41;;;;;;;14.68;8.57;;;;;;;43.37;17.21;94108.03;5053900;28;20048;-50
2021/07/31 07:46:13;;;;;;;13.45;7.70;;;;;;;43.33;17.61;94112.31;4987579;22;20079;-57
2021/07/31 07:48:41;;;;;;;14.88;8.32;;;;;;;43.42;17.54;94112.00;5054636;28;20041;-53
2021/07/31 07:51:08;;;;;;;12.93;7.65;;;;;;;43.27;17.16;94108.81;5058037;28;20044;-52
2021/07/31 07:53:35;;;;;;;11.20;7.35;;;;;;;43.58;17.19;94104.97;5074312;28;20051;-52
2021/07/31 07:56:03;;;;;;;11.10;8.02;;;;;;;43.77;17.37;94100.38;5073102;28;20048;-55
2021/07/31 07:58:31;;;;;;;15.05;8.45;;;;;;;43.57;17.11;94104.22;5074488;28;20046;-50
2021/07/31 08:00:58;;;;;;;16.23;8.15;;;;;;;43.54;17.05;94099.72;5074461;28;20040;-51
2021/07/31 08:03:25;;;;;;;12.88;8.07;;;;;;;43.72;17.35;94092.88;5059838;28;20049;-56
2021/07/31 08:05:52;;;;;;;15.40;9.00;;;;;;;43.86;16.88;94102.81;5054062;28;20059;-52
2021/07/31 08:08:19;;;;;;;16.25;8.95;;;;;;;43.59;16.75;94095.44;5054226;28;20045;-52
2021/07/31 08:10:46;;;;;;;16.27;9.02;;;;;;;43.64;17.33;94089.16;5054351;28;20071;-53
2021/07/31 08:13:13;;;;;;;13.25;8.48;;;;;;;43.66;17.26;94100.41;5054049;28;20036;-53
2021/07/31 08:15:40;;;;;;;17.70;8.70;;;;;;;43.61;16.94;94085.41;5053619;28;20478;-55
2021/07/31 08:18:07;;;;;;;17.60;9.35;;;;;;;43.67;17.04;94083.41;5074281;28;20056;-55
2021/07/31 08:20:35;;;;;;;14.93;8.32;;;;;;;44.01;16.78;94085.22;5074344;28;20052;-51
2021/07/31 08:23:02;;;;;;;17.42;8.32;;;;;;;44.09;16.76;94092.44;5074079;28;20378;-53
2021/07/31 08:25:29;;;;;;;24.80;9.13;;;;;;;44.46;16.37;94083.66;5073562;28;20044;-49
2021/07/31 08:27:56;;;;;;;24.75;9.15;;;;;;;44.48;16.35;94094.91;5073968;28;20044;-55
2021/07/31 08:30:23;;;;;;;14.73;8.98;;;;;;;44.08;16.91;94092.97;5074130;28;20316;-52
2021/07/31 08:32:50;;;;;;;19.95;8.80;;;;;;;44.21;16.62;94087.59;5073997;28;20052;-51
2021/07/31 08:35:17;;;;;;;14.73;8.43;;;;;;;44.35;16.54;94094.75;5074079;28;20435;-55
2021/07/31 08:37:44;;;;;;;15.20;9.05;;;;;;;44.33;16.15;94088.28;5073871;28;20059;-54
2021/07/31 08:40:12;;;;;;;16.38;9.80;;;;;;;44.12;16.41;94080.41;5073850;28;20048;-53
2021/07/31 08:42:41;;;;;;;16.50;9.10;;;;;;;43.98;16.30;94082.25;5076234;28;20055;-50
2021/07/31 08:45:09;;;;;;;17.60;7.95;;;;;;;44.15;16.40;94087.66;5077069;28;20064;-51
2021/07/31 08:47:37;;;;;;;16.50;9.02;;;;;;;44.14;16.28;94082.66;5077495;28;20448;-54
2021/07/31 08:50:06;;;;;;;15.25;9.05;;;;;;;44.26;16.32;94084.06;5076677;28;20040;-54
2021/07/31 08:52:35;;;;;;;14.30;8.35;;;;;;;44.54;16.14;94070.84;5059835;28;20053;-51
2021/07/31 08:55:03;;;;;;;17.23;8.63;;;;;;;44.34;16.25;94085.00;5059672;28;20048;-53
2021/07/31 08:57:30;;;;;;;15.50;8.20;;;;;;;44.41;16.24;94081.69;5057423;28;20045;-52
2021/07/31 08:59:57;;;;;;;17.10;8.43;;;;;;;44.47;16.46;94071.38;5055281;28;20052;-50
2021/07/31 09:02:24;;;;;;;14.23;7.97;;;;;;;44.53;16.12;94069.34;5056310;28;20044;-51
2021/07/31 09:04:52;;;;;;;11.82;7.38;;;;;;;44.53;16.05;94063.09;5067676;28;20052;-53
2021/07/31 09:07:19;;;;;;;13.68;8.15;;;;;;;44.77;15.77;94065.13;5059604;28;20040;-52
2021/07/31 09:09:46;;;;;;;13.05;8.10;;;;;;;44.53;15.57;94068.59;5077106;28;20362;-54
2021/07/31 09:12:13;;;;;;;16.13;8.20;;;;;;;44.30;15.34;94065.25;5076259;28;20044;-53
2021/07/31 09:14:49;;;;;;;17.23;8.27;;;;;;;44.43;15.47;94065.38;5075690;28;20048;-50
2021/07/31 09:17:24;;;;;;;14.85;8.13;;;;;;;44.52;15.57;94059.59;5076987;28;20402;-55
2021/07/31 09:19:51;;;;;;;18.65;8.68;;;;;;;44.97;15.40;94055.63;5077203;28;20435;-53
2021/07/31 09:22:18;;;;;;;12.88;8.27;;;;;;;45.05;15.31;94057.31;5073879;28;20052;-56
2021/07/31 09:25:09;;;;;;;15.35;8.52;;;;;;;45.16;15.63;94046.13;5055244;28;20056;-53
2021/07/31 09:27:37;;;;;;;17.75;8.23;;;;;;;45.02;15.40;94052.06;5056201;28;20052;-55
2021/07/31 09:30:06;;;;;;;13.05;7.88;;;;;;;45.04;15.31;94044.78;5056860;28;20045;-51
2021/07/31 09:32:38;;;;;;;14.57;8.65;;;;;;;45.19;14.73;94045.09;5056771;28;20439;-55
2021/07/31 09:35:20;;;;;;;16.95;9.18;;;;;;;45.13;15.24;94044.44;5056770;28;20049;-54
2021/07/31 09:37:52;;;;;;;16.98;8.20;;;;;;;45.30;15.04;94043.50;5056849;28;20044;-52
2021/07/31 09:40:28;;;;;;;17.50;8.60;;;;;;;45.61;14.90;94034.56;5056524;28;20040;-54
2021/07/31 09:42:56;;;;;;;14.98;8.07;;;;;;;45.49;14.65;94035.97;5056547;28;20384;-58
2021/07/31 09:45:32;;;;;;;15.00;8.50;;;;;;;45.32;14.51;94029.94;5054705;28;20064;-56
2021/07/31 09:48:04;;;;;;;14.73;8.45;;;;;;;45.23;14.48;94035.78;5073087;28;20047;-58
2021/07/31 09:50:39;;;;;;;16.67;8.23;;;;;;;45.42;14.95;94029.03;5076635;28;20036;-56
2021/07/31 09:53:16;;;;;;;18.23;8.85;;;;;;;45.61;14.50;94023.53;5075080;28;20081;-56
2021/07/31 09:55:51;;;;;;;14.15;7.80;;;;;;;45.39;14.30;94029.34;5041254;28;20059;-51
2021/07/31 09:58:20;;;;;;;14.77;8.82;;;;;;;45.23;14.24;94039.28;5076088;28;20056;-54
2021/07/31 10:00:48;;;;;;;15.25;8.15;;;;;;;45.10;14.11;94017.16;5076570;28;20040;-52
2021/07/31 10:03:15;;;;;;;14.65;8.20;;;;;;;45.20;14.65;94010.72;5058486;28;20044;-55
2021/07/31 10:05:43;;;;;;;14.02;8.32;;;;;;;45.45;14.39;94005.91;5076316;28;20051;-52
2021/07/31 10:08:11;;;;;;;18.60;9.13;;;;;;;45.40;14.52;94019.78;5075906;28;20044;-51
2021/07/31 10:10:39;;;;;;;14.45;8.70;;;;;;;45.34;14.88;93999.81;5076275;28;20371;-51
2021/07/31 10:13:07;;;;;;;15.65;8.23;;;;;;;45.53;13.86;94011.56;5075917;28;20056;-52
2021/07/31 10:15:34;;;;;;;12.68;7.85;;;;;;;44.86;13.68;94001.38;5075433;28;20048;-54
2021/07/31 10:18:10;;;;;;;16.23;8.10;;;;;;;45.41;13.54;93990.94;5075178;28;20051;-51
2021/07/31 10:20:38;;;;;;;16.10;8.18;;;;;;;45.20;13.72;94002.47;5076029;28;20087;-58
2021/07/31 10:23:07;;;;;;;12.02;7.20;;;;;;;45.30;13.28;94004.91;5068351;28;20048;-53
2021/07/31 10:25:36;;;;;;;17.42;8.02;;;;;;;45.17;13.72;93997.25;5054892;28;20041;-54
2021/07/31 10:28:22;;;;;;;11.05;6.72;;;;;;;45.29;13.67;94003.41;5041399;28;20056;-52
2021/07/31 10:30:49;;;;;;;14.98;7.28;;;;;;;45.28;13.78;94001.88;5055972;28;20049;-51
2021/07/31 10:33:45;;;;;;;15.15;7.25;;;;;;;44.86;13.87;93993.13;5059480;28;20128;-55
2021/07/31 10:36:33;;;;;;;13.85;7.40;;;;;;;45.01;14.04;93985.16;5055332;28;20052;-51
2021/07/31 10:39:21;;;;;;;13.80;7.72;;;;;;;45.04;13.60;93984.13;5055677;28;20048;-53
2021/07/31 10:41:55;;;;;;;13.25;7.28;;;;;;;45.09;13.75;93986.06;5055233;28;20068;-54
2021/07/31 10:44:22;;;;;;;14.18;7.60;;;;;;;45.00;13.85;93983.66;5054545;28;20045;-53
2021/07/31 10:46:51;;;;;;;17.55;7.25;;;;;;;45.26;13.82;93985.13;5060380;28;20052;-52
2021/07/31 10:49:35;;;;;;;15.57;7.80;;;;;;;44.79;13.90;93979.91;5057808;28;20048;-54
2021/07/31 10:52:02;;;;;;;19.98;7.57;;;;;;;45.05;14.15;93976.59;5074957;28;20048;-51
2021/07/31 10:55:02;;;;;;;15.55;7.30;;;;;;;45.01;14.57;93974.13;5065154;28;20053;-53
2021/07/31 10:58:10;;;;;;;17.08;7.47;;;;;;;45.86;13.28;93971.00;5058839;28;20482;-51
2021/07/31 11:00:42;;;;;;;15.50;7.20;;;;;;;45.57;13.41;93973.41;4993086;28;20065;-52
2021/07/31 11:03:21;;;;;;;12.68;6.95;;;;;;;45.24;13.10;93980.13;4976802;28;20046;-52
2021/07/31 11:06:06;;;;;;;16.10;6.93;;;;;;;45.17;13.28;93970.41;5042845;28;20044;-55
2021/07/31 11:08:56;;;;;;;16.02;7.10;;;;;;;44.92;13.02;93957.94;5056335;28;20048;-52
2021/07/31 11:11:27;;;;;;;17.42;6.97;;;;;;;44.72;13.58;93958.41;5055061;28;20041;-54
2021/07/31 11:13:55;;;;;;;15.27;7.03;;;;;;;44.81;13.09;93958.06;5073433;28;20048;-52
2021/07/31 11:16:23;;;;;;;12.10;6.60;;;;;;;45.26;13.47;93952.75;5073897;28;20056;-51
2021/07/31 11:18:54;;;;;;;14.25;7.85;;;;;;;44.97;13.29;93951.63;5075004;28;20052;-54
2021/07/31 11:21:30;;;;;;;14.38;7.20;;;;;;;45.03;13.48;93949.56;5073790;28;20045;-51
2021/07/31 11:24:04;;;;;;;13.20;6.57;;;;;;;45.09;13.60;93947.47;5061705;28;20057;-56
2021/07/31 11:26:38;;;;;;;11.85;7.22;;;;;;;45.16;13.19;93944.09;5054427;28;20430;-52
2021/07/31 11:29:13;;;;;;;10.27;6.43;;;;;;;45.00;13.29;93945.06;5054821;28;20122;-52
2021/07/31 11:31:44;;;;;;;13.30;6.78;;;;;;;45.12;13.04;93943.66;5054842;28;20040;-56
2021/07/31 11:34:13;;;;;;;13.52;7.40;;;;;;;44.94;12.96;93940.88;5054247;28;20048;-50
2021/07/31 11:36:41;;;;;;;16.58;6.93;;;;;;;45.10;12.99;93943.44;5054306;28;20044;-52